Time;durP1;ratioP1;P1;durP2;ratioP2;P2;SDS_P1;SDS_P2;PMS_P1;PMS_P2;Temp;Humidity;BMP_temperature;BMP_pressure;BME280_temperature;BME280_humidity;BME280_pressure;Samples;Min_cycle;Max_cycle;Signal;HPM_P1;HPM_P2
2021/06/13 00:01:38;;;;;;;9.63;3.42;;;;;;;;;;5101587;28;20524;-75
2021/06/13 00:04:04;;;;;;;10.30;3.60;;;;;;;;;;5101561;28;20032;-75
2021/06/13 00:06:30;;;;;;;12.35;3.67;;;;;;;;;;5081339;28;20383;-75
2021/06/13 00:08:56;;;;;;;7.13;3.53;;;;;;;;;;5076674;28;20032;-75
2021/06/13 00:11:23;;;;;;;9.32;3.58;;;;;;;;;;5073090;28;20055;-75
2021/06/13 00:13:49;;;;;;;12.25;3.78;;;;;;;;;;5083090;28;20028;-75
2021/06/13 00:16:16;;;;;;;6.78;3.35;;;;;;;;;;5073841;28;20028;-74
2021/06/13 00:18:42;;;;;;;8.85;3.78;;;;;;;;;;5072755;28;20487;-74
2021/06/13 00:21:08;;;;;;;9.93;3.85;;;;;;;;;;5073831;28;20024;-75
2021/06/13 00:23:34;;;;;;;8.15;3.50;;;;;;;;;;5073200;28;20063;-74
2021/06/13 00:26:00;;;;;;;12.90;4.00;;;;;;;;;;5080864;28;20028;-75
2021/06/13 00:28:26;;;;;;;5.40;3.47;;;;;;;;;;5083522;28;20033;-74
2021/06/13 00:30:52;;;;;;;8.00;3.50;;;;;;;;;;5088457;28;20378;-74
2021/06/13 00:33:19;;;;;;;8.82;3.63;;;;;;;;;;5112789;28;20028;-74
2021/06/13 00:35:45;;;;;;;7.72;4.65;;;;;;;;;;5086607;28;20043;-75
2021/06/13 00:38:11;;;;;;;7.72;3.53;;;;;;;;;;5072256;28;20099;-74
2021/06/13 00:40:37;;;;;;;10.98;3.85;;;;;;;;;;5072143;28;20035;-75
2021/06/13 00:43:03;;;;;;;8.30;3.60;;;;;;;;;;5072406;28;20364;-74
2021/06/13 00:45:30;;;;;;;11.43;3.55;;;;;;;;;;5081312;28;20048;-75
2021/06/13 00:47:56;;;;;;;6.90;3.80;;;;;;;;;;5075773;28;20055;-75
2021/06/13 00:50:28;;;;;;;11.38;4.10;;;;;;;;;;5072305;28;20029;-75
2021/06/13 00:52:54;;;;;;;12.57;4.40;;;;;;;;;;5072268;28;20033;-75
2021/06/13 00:55:20;;;;;;;8.13;3.78;;;;;;;;;;5072077;28;20037;-74
2021/06/13 00:57:46;;;;;;;7.60;3.58;;;;;;;;;;5078803;28;20031;-74
2021/06/13 01:00:12;;;;;;;10.30;4.13;;;;;;;;;;5084381;28;20031;-75
2021/06/13 01:02:38;;;;;;;9.57;4.40;;;;;;;;;;5109544;28;20123;-75
2021/06/13 01:05:05;;;;;;;8.77;3.65;;;;;;;;;;5080394;28;20020;-74
2021/06/13 01:07:39;;;;;;;8.95;3.80;;;;;;;;;;5087596;28;20506;-75
2021/06/13 01:10:28;;;;;;;7.15;3.75;;;;;;;;;;5072174;28;20028;-75
2021/06/13 01:13:18;;;;;;;11.50;3.90;;;;;;;;;;5078321;28;20044;-75
2021/06/13 01:15:47;;;;;;;8.50;3.63;;;;;;;;;;5084014;28;20032;-74
2021/06/13 01:18:46;;;;;;;9.38;3.90;;;;;;;;;;5081590;28;20029;-75
2021/06/13 01:21:16;;;;;;;12.25;4.00;;;;;;;;;;5077491;28;20048;-74
2021/06/13 01:24:00;;;;;;;8.85;3.60;;;;;;;;;;5079339;28;20032;-74
2021/06/13 01:26:49;;;;;;;8.80;3.83;;;;;;;;;;5071880;28;20024;-75
2021/06/13 01:29:36;;;;;;;8.38;3.55;;;;;;;;;;5076153;28;20090;-75
2021/06/13 01:32:06;;;;;;;12.05;4.57;;;;;;;;;;5096402;28;20019;-75
2021/06/13 01:34:35;;;;;;;7.40;4.18;;;;;;;;;;5106602;28;20027;-74
2021/06/13 01:37:03;;;;;;;9.38;4.38;;;;;;;;;;5076822;28;20023;-74
2021/06/13 01:39:30;;;;;;;10.63;3.70;;;;;;;;;;5071779;28;20028;-75
2021/06/13 01:41:58;;;;;;;11.30;6.68;;;;;;;;;;5074218;28;20064;-75
2021/06/13 01:44:25;;;;;;;9.60;4.47;;;;;;;;;;5092583;28;20024;-75
2021/06/13 01:46:52;;;;;;;8.20;3.90;;;;;;;;;;5089616;28;20031;-74
2021/06/13 01:49:19;;;;;;;10.30;4.40;;;;;;;;;;5076112;28;20024;-74
2021/06/13 01:51:46;;;;;;;7.50;4.18;;;;;;;;;;5075268;28;20025;-74
2021/06/13 01:54:13;;;;;;;10.38;4.22;;;;;;;;;;5075897;28;20020;-74
2021/06/13 01:56:42;;;;;;;10.32;4.28;;;;;;;;;;5077188;28;20033;-74
2021/06/13 01:59:09;;;;;;;7.55;3.83;;;;;;;;;;5075160;28;20444;-74
2021/06/13 02:01:36;;;;;;;9.85;4.15;;;;;;;;;;5085371;28;20030;-75
2021/06/13 02:04:03;;;;;;;9.50;4.03;;;;;;;;;;5106573;28;20022;-75
2021/06/13 02:06:31;;;;;;;10.93;4.65;;;;;;;;;;5090752;28;20094;-75
2021/06/13 02:08:57;;;;;;;9.48;5.45;;;;;;;;;;5087084;28;20028;-74
2021/06/13 02:11:24;;;;;;;6.75;3.70;;;;;;;;;;5091744;28;20025;-75
2021/06/13 02:13:51;;;;;;;14.00;4.50;;;;;;;;;;5077801;28;20047;-75
2021/06/13 02:16:19;;;;;;;9.85;4.63;;;;;;;;;;5074882;28;20032;-75
2021/06/13 02:18:45;;;;;;;14.52;4.82;;;;;;;;;;5079884;28;20391;-75
2021/06/13 02:21:12;;;;;;;8.73;4.10;;;;;;;;;;5075012;28;20031;-76
2021/06/13 02:23:39;;;;;;;9.40;4.32;;;;;;;;;;5074536;28;20028;-75
2021/06/13 02:26:06;;;;;;;10.65;5.00;;;;;;;;;;5088636;28;20032;-75
2021/06/13 02:28:38;;;;;;;14.25;6.00;;;;;;;;;;5086659;28;20051;-75
2021/06/13 02:31:07;;;;;;;7.80;4.20;;;;;;;;;;5078589;28;20501;-74
2021/06/13 02:33:34;;;;;;;8.63;4.10;;;;;;;;;;5130085;27;20055;-74
2021/06/13 02:36:01;;;;;;;9.23;3.65;;;;;;;;;;5087522;28;20395;-74
2021/06/13 02:38:27;;;;;;;6.82;4.38;;;;;;;;;;5090233;28;20037;-74
2021/06/13 02:40:54;;;;;;;11.77;4.80;;;;;;;;;;5074636;28;20026;-73
2021/06/13 02:43:20;;;;;;;9.65;4.07;;;;;;;;;;5074287;28;20159;-74
2021/06/13 02:45:48;;;;;;;12.45;4.22;;;;;;;;;;5081156;28;20024;-74
2021/06/13 02:48:14;;;;;;;10.88;4.60;;;;;;;;;;5091181;28;20027;-74
2021/06/13 02:50:40;;;;;;;9.35;4.03;;;;;;;;;;5094636;28;20545;-74
2021/06/13 02:53:06;;;;;;;9.20;4.20;;;;;;;;;;5090684;28;20111;-74
2021/06/13 02:55:53;;;;;;;11.25;4.85;;;;;;;;;;5083402;28;20052;-74
2021/06/13 02:58:34;;;;;;;8.68;4.35;;;;;;;;;;5091014;28;20040;-74
2021/06/13 03:01:02;;;;;;;9.60;4.22;;;;;;;;;;5080066;28;20024;-75
2021/06/13 03:03:29;;;;;;;11.25;4.60;;;;;;;;;;5084027;28;20041;-74
2021/06/13 03:05:55;;;;;;;10.68;5.07;;;;;;;;;;5077833;28;20081;-74
2021/06/13 03:08:21;;;;;;;11.65;4.72;;;;;;;;;;5078458;28;20028;-75
2021/06/13 03:10:48;;;;;;;6.50;3.92;;;;;;;;;;5078237;28;20024;-74
2021/06/13 03:13:16;;;;;;;10.68;4.35;;;;;;;;;;5074809;28;20029;-74
2021/06/13 03:15:42;;;;;;;10.77;3.95;;;;;;;;;;5083947;28;20044;-74
2021/06/13 03:18:09;;;;;;;7.88;3.72;;;;;;;;;;5080022;28;20439;-73
2021/06/13 03:20:36;;;;;;;10.93;4.03;;;;;;;;;;5079513;28;20031;-74
2021/06/13 03:23:02;;;;;;;9.85;3.60;;;;;;;;;;5080036;28;20040;-73
2021/06/13 03:25:28;;;;;;;8.40;4.20;;;;;;;;;;5074445;28;20036;-74
2021/06/13 03:27:54;;;;;;;7.30;4.03;;;;;;;;;;5075144;28;20042;-74
2021/06/13 03:30:22;;;;;;;7.32;3.63;;;;;;;;;;5074678;28;20035;-75
2021/06/13 03:32:48;;;;;;;10.10;3.72;;;;;;;;;;5091464;28;20048;-74
2021/06/13 03:35:14;;;;;;;10.20;3.70;;;;;;;;;;5085642;28;20456;-74
2021/06/13 03:37:41;;;;;;;10.82;4.70;;;;;;;;;;5079719;28;20031;-73
2021/06/13 03:40:08;;;;;;;8.63;4.13;;;;;;;;;;5073641;28;20028;-73
2021/06/13 03:42:35;;;;;;;7.60;4.22;;;;;;;;;;5073170;28;20031;-74
2021/06/13 03:45:01;;;;;;;11.98;4.60;;;;;;;;;;5078760;28;20023;-74
2021/06/13 03:47:28;;;;;;;11.27;4.13;;;;;;;;;;5091902;28;20027;-74
2021/06/13 03:49:54;;;;;;;10.60;4.40;;;;;;;;;;5084292;28;20021;-73
2021/06/13 03:52:22;;;;;;;14.77;4.85;;;;;;;;;;5073001;28;20020;-73
2021/06/13 03:54:48;;;;;;;7.85;4.07;;;;;;;;;;5073340;28;20511;-73
2021/06/13 03:57:14;;;;;;;7.22;4.03;;;;;;;;;;5078242;28;20032;-74
2021/06/13 03:59:42;;;;;;;8.05;3.90;;;;;;;;;;5086754;28;20020;-74
2021/06/13 04:02:08;;;;;;;9.15;3.63;;;;;;;;;;5093046;28;20063;-74
2021/06/13 04:04:43;;;;;;;8.38;3.63;;;;;;;;;;5083059;28;20386;-74
2021/06/13 04:07:10;;;;;;;8.40;3.72;;;;;;;;;;5113887;28;20035;-74
2021/06/13 04:09:38;;;;;;;9.40;4.20;;;;;;;;;;5113702;28;20023;-74
2021/06/13 04:12:06;;;;;;;8.48;3.90;;;;;;;;;;5077456;28;20023;-74
2021/06/13 04:14:32;;;;;;;12.10;4.63;;;;;;;;;;5077441;28;20060;-74
2021/06/13 04:17:00;;;;;;;13.10;4.57;;;;;;;;;;5076768;28;20077;-74
2021/06/13 04:19:26;;;;;;;7.15;3.65;;;;;;;;;;5084587;28;20517;-74
2021/06/13 04:21:52;;;;;;;9.57;4.43;;;;;;;;;;5089842;28;20047;-74
2021/06/13 04:24:21;;;;;;;10.75;3.90;;;;;;;;;;5090768;28;20033;-74
2021/06/13 04:26:47;;;;;;;10.43;4.22;;;;;;;;;;5086689;28;20024;-74
2021/06/13 04:29:14;;;;;;;8.23;3.95;;;;;;;;;;5084599;28;20027;-74
2021/06/13 04:31:40;;;;;;;12.30;4.28;;;;;;;;;;5089513;28;20056;-74
2021/06/13 04:34:06;;;;;;;9.80;3.90;;;;;;;;;;5076238;28;20096;-74
2021/06/13 04:36:35;;;;;;;9.15;4.13;;;;;;;;;;5111032;28;20020;-74
2021/06/13 04:39:01;;;;;;;8.50;4.10;;;;;;;;;;5107650;28;20020;-74
2021/06/13 04:41:28;;;;;;;9.30;3.75;;;;;;;;;;5091797;28;20035;-74
2021/06/13 04:43:54;;;;;;;12.40;4.07;;;;;;;;;;5090209;28;20028;-74
2021/06/13 04:46:28;;;;;;;9.57;3.88;;;;;;;;;;5085830;28;20089;-74
2021/06/13 04:48:54;;;;;;;10.23;4.03;;;;;;;;;;5074873;28;20075;-74
2021/06/13 04:51:21;;;;;;;7.30;4.10;;;;;;;;;;5092458;28;20028;-75
2021/06/13 04:53:59;;;;;;;11.32;4.25;;;;;;;;;;5090654;28;20103;-74
2021/06/13 04:56:25;;;;;;;10.95;4.20;;;;;;;;;;5076275;28;20028;-74
2021/06/13 04:58:51;;;;;;;8.48;4.55;;;;;;;;;;5081533;28;20375;-74
2021/06/13 05:01:17;;;;;;;12.18;3.70;;;;;;;;;;5072965;28;20039;-73
2021/06/13 05:03:43;;;;;;;6.95;4.00;;;;;;;;;;5076136;28;20093;-74
2021/06/13 05:06:10;;;;;;;9.80;3.92;;;;;;;;;;5101579;28;20073;-74
2021/06/13 05:08:36;;;;;;;8.43;4.20;;;;;;;;;;5107244;28;20017;-74
2021/06/13 05:11:03;;;;;;;9.23;3.97;;;;;;;;;;5072116;28;20495;-74
2021/06/13 05:13:29;;;;;;;9.07;4.55;;;;;;;;;;5080020;28;20140;-74
2021/06/13 05:15:55;;;;;;;9.85;4.15;;;;;;;;;;5092082;28;20028;-74
2021/06/13 05:18:21;;;;;;;11.85;4.45;;;;;;;;;;5087831;28;20028;-74
2021/06/13 05:20:52;;;;;;;9.05;4.07;;;;;;;;;;5088068;28;20149;-74
2021/06/13 05:23:19;;;;;;;7.40;3.67;;;;;;;;;;5089411;28;20032;-73
2021/06/13 05:25:45;;;;;;;9.75;4.03;;;;;;;;;;5077625;28;20051;-74
2021/06/13 05:28:11;;;;;;;10.93;4.43;;;;;;;;;;5076024;28;20028;-74
2021/06/13 05:30:37;;;;;;;9.43;4.05;;;;;;;;;;5075822;28;20025;-74
2021/06/13 05:33:03;;;;;;;10.35;4.18;;;;;;;;;;5075711;28;20095;-74
2021/06/13 05:35:29;;;;;;;10.88;5.40;;;;;;;;;;5099024;28;20028;-74
2021/06/13 05:37:55;;;;;;;11.25;4.90;;;;;;;;;;5096826;28;20035;-75
2021/06/13 05:40:22;;;;;;;9.18;4.00;;;;;;;;;;5081737;28;20102;-75
2021/06/13 05:42:49;;;;;;;11.48;4.35;;;;;;;;;;5095301;28;20482;-74
2021/06/13 05:45:16;;;;;;;10.43;4.40;;;;;;;;;;5094173;28;20073;-74
2021/06/13 05:47:42;;;;;;;8.43;4.30;;;;;;;;;;5092413;28;20035;-75
2021/06/13 05:50:09;;;;;;;6.93;4.05;;;;;;;;;;5093022;28;20154;-75
2021/06/13 05:52:35;;;;;;;10.13;4.50;;;;;;;;;;5084713;28;20077;-75
2021/06/13 05:55:01;;;;;;;8.88;4.25;;;;;;;;;;5095864;28;20020;-74
2021/06/13 05:57:31;;;;;;;12.73;4.25;;;;;;;;;;5095853;28;20032;-74
2021/06/13 05:59:59;;;;;;;11.52;4.22;;;;;;;;;;5094486;28;20597;-74
2021/06/13 06:02:25;;;;;;;9.95;3.50;;;;;;;;;;5094943;28;20205;-74
2021/06/13 06:04:51;;;;;;;9.68;4.15;;;;;;;;;;5078476;28;20016;-74
2021/06/13 06:07:17;;;;;;;9.82;4.13;;;;;;;;;;5074586;28;20365;-74
2021/06/13 06:09:43;;;;;;;6.78;3.50;;;;;;;;;;5075070;28;20024;-75
2021/06/13 06:12:10;;;;;;;10.45;4.22;;;;;;;;;;5074465;28;20031;-74
2021/06/13 06:14:36;;;;;;;9.07;4.30;;;;;;;;;;5088458;28;20035;-74
2021/06/13 06:17:02;;;;;;;10.82;4.72;;;;;;;;;;5115955;28;20516;-74
2021/06/13 06:19:28;;;;;;;9.65;4.18;;;;;;;;;;5106705;28;20062;-74
2021/06/13 06:21:54;;;;;;;10.65;4.53;;;;;;;;;;5095345;28;20016;-74
2021/06/13 06:24:20;;;;;;;7.32;3.80;;;;;;;;;;5089541;28;20052;-75
2021/06/13 06:26:46;;;;;;;10.80;3.97;;;;;;;;;;5087870;28;20017;-75
2021/06/13 06:29:12;;;;;;;12.38;4.63;;;;;;;;;;5076208;28;20056;-75
2021/06/13 06:31:38;;;;;;;9.50;4.25;;;;;;;;;;5091001;28;20032;-75
2021/06/13 06:34:05;;;;;;;9.88;3.90;;;;;;;;;;5081961;28;20039;-75
2021/06/13 06:36:31;;;;;;;6.57;3.75;;;;;;;;;;5097673;28;20020;-75
2021/06/13 06:38:57;;;;;;;10.57;4.05;;;;;;;;;;5102409;28;20502;-75
2021/06/13 06:41:23;;;;;;;7.65;3.80;;;;;;;;;;5115758;27;20034;-75
2021/06/13 06:43:49;;;;;;;9.00;3.97;;;;;;;;;;5099509;28;20024;-74
2021/06/13 06:46:15;;;;;;;8.63;3.83;;;;;;;;;;5074536;28;20032;-75
2021/06/13 06:48:41;;;;;;;11.02;3.97;;;;;;;;;;5073907;28;20080;-75
2021/06/13 06:51:07;;;;;;;8.43;3.65;;;;;;;;;;5078462;28;20097;-75
2021/06/13 06:53:33;;;;;;;8.40;4.82;;;;;;;;;;5074706;28;20070;-75
2021/06/13 06:55:59;;;;;;;11.68;4.40;;;;;;;;;;5078206;28;20052;-75
2021/06/13 06:58:25;;;;;;;7.90;4.45;;;;;;;;;;5094242;28;20051;-76
2021/06/13 07:00:51;;;;;;;10.13;4.13;;;;;;;;;;5086669;28;20029;-76
2021/06/13 07:03:17;;;;;;;11.15;5.30;;;;;;;;;;5085665;28;20076;-76
2021/06/13 07:05:43;;;;;;;9.80;4.32;;;;;;;;;;5086105;28;20021;-76
2021/06/13 07:08:09;;;;;;;6.03;3.72;;;;;;;;;;5074056;28;20411;-75
2021/06/13 07:10:36;;;;;;;8.07;3.70;;;;;;;;;;5074226;28;20025;-76
2021/06/13 07:13:02;;;;;;;9.40;3.65;;;;;;;;;;5078171;28;20024;-75
2021/06/13 07:15:28;;;;;;;9.90;3.55;;;;;;;;;;5074303;28;20027;-75
2021/06/13 07:17:54;;;;;;;7.78;4.05;;;;;;;;;;5074526;28;20384;-76
2021/06/13 07:20:20;;;;;;;8.43;3.40;;;;;;;;;;5089093;28;20032;-76
2021/06/13 07:22:47;;;;;;;7.57;3.42;;;;;;;;;;5100569;28;20028;-75
2021/06/13 07:25:13;;;;;;;10.05;3.80;;;;;;;;;;5073604;28;20055;-75
2021/06/13 07:27:40;;;;;;;7.70;3.55;;;;;;;;;;5089638;28;20030;-75
2021/06/13 07:30:07;;;;;;;6.85;3.63;;;;;;;;;;5083627;28;20596;-75
2021/06/13 07:32:33;;;;;;;7.28;3.97;;;;;;;;;;5086937;28;20113;-76
2021/06/13 07:34:59;;;;;;;5.57;3.47;;;;;;;;;;5086761;28;20020;-76
2021/06/13 07:37:25;;;;;;;6.18;3.30;;;;;;;;;;5091933;28;20032;-75
2021/06/13 07:39:52;;;;;;;7.63;3.22;;;;;;;;;;5089472;28;20044;-75
2021/06/13 07:42:18;;;;;;;5.90;3.20;;;;;;;;;;5092437;28;20364;-75
2021/06/13 07:44:44;;;;;;;6.78;3.63;;;;;;;;;;5083760;28;20028;-76
2021/06/13 07:47:10;;;;;;;6.57;2.90;;;;;;;;;;5076034;28;20079;-76
2021/06/13 07:49:36;;;;;;;8.02;4.75;;;;;;;;;;5091803;28;20055;-76
2021/06/13 07:52:02;;;;;;;7.68;2.95;;;;;;;;;;5083777;28;20498;-75
2021/06/13 07:54:29;;;;;;;7.22;3.42;;;;;;;;;;5076159;28;20490;-75
2021/06/13 07:56:56;;;;;;;6.68;3.25;;;;;;;;;;5089147;28;20020;-75
2021/06/13 07:59:22;;;;;;;6.18;3.20;;;;;;;;;;5093303;28;20029;-76
2021/06/13 08:01:48;;;;;;;6.05;2.85;;;;;;;;;;5080530;28;20035;-76
2021/06/13 08:04:14;;;;;;;6.45;2.88;;;;;;;;;;5091754;28;20364;-76
2021/06/13 08:06:40;;;;;;;5.97;3.10;;;;;;;;;;5096927;28;20470;-76
2021/06/13 08:09:06;;;;;;;8.40;4.68;;;;;;;;;;5084837;28;20533;-76
2021/06/13 08:11:32;;;;;;;8.77;3.63;;;;;;;;;;5077822;28;20031;-76
2021/06/13 08:13:59;;;;;;;5.93;3.00;;;;;;;;;;5078092;28;20036;-69
2021/06/13 08:16:25;;;;;;;6.35;2.90;;;;;;;;;;5091921;28;20097;-72
2021/06/13 08:18:52;;;;;;;8.45;3.30;;;;;;;;;;5088643;28;20024;-74
2021/06/13 08:21:18;;;;;;;7.82;3.72;;;;;;;;;;5078886;28;20106;-74
2021/06/13 08:23:44;;;;;;;5.90;3.70;;;;;;;;;;5091620;28;20395;-74
2021/06/13 08:26:10;;;;;;;10.20;3.33;;;;;;;;;;5082519;28;20017;-73
2021/06/13 08:28:36;;;;;;;7.97;4.28;;;;;;;;;;5072941;28;20063;-73
2021/06/13 08:31:02;;;;;;;7.50;3.97;;;;;;;;;;5072594;28;20052;-75
2021/06/13 08:33:28;;;;;;;8.23;3.70;;;;;;;;;;5072625;28;20069;-74
2021/06/13 08:35:54;;;;;;;8.98;3.63;;;;;;;;;;5087026;28;20043;-74
2021/06/13 08:38:21;;;;;;;6.15;3.58;;;;;;;;;;5092609;28;20028;-74
2021/06/13 08:40:47;;;;;;;5.68;3.45;;;;;;;;;;5092861;28;20024;-75
2021/06/13 08:43:14;;;;;;;7.65;3.60;;;;;;;;;;5091767;28;20099;-73
2021/06/13 08:45:40;;;;;;;6.53;4.22;;;;;;;;;;5092782;28;20027;-74
2021/06/13 08:48:10;;;;;;;10.35;3.85;;;;;;;;;;5092765;28;20467;-74
2021/06/13 08:50:37;;;;;;;4.80;3.22;;;;;;;;;;5092599;28;20171;-74
2021/06/13 08:53:04;;;;;;;6.90;3.88;;;;;;;;;;5092234;28;20028;-75
2021/06/13 08:55:32;;;;;;;6.95;4.07;;;;;;;;;;5081258;28;20035;-74
2021/06/13 08:57:58;;;;;;;9.77;3.60;;;;;;;;;;5088339;28;20440;-75
2021/06/13 09:00:26;;;;;;;7.65;3.58;;;;;;;;;;5092028;28;20020;-74
2021/06/13 09:02:53;;;;;;;6.88;3.00;;;;;;;;;;5080878;28;20056;-73
2021/06/13 09:05:22;;;;;;;7.57;3.42;;;;;;;;;;5085448;28;20063;-75
2021/06/13 09:07:53;;;;;;;9.88;3.55;;;;;;;;;;5072916;28;20177;-75
2021/06/13 09:10:22;;;;;;;6.47;3.72;;;;;;;;;;5078758;28;20140;-74
2021/06/13 09:12:48;;;;;;;6.35;3.75;;;;;;;;;;5083397;28;20031;-74
2021/06/13 09:15:15;;;;;;;6.80;3.85;;;;;;;;;;5084382;28;20024;-73
2021/06/13 09:17:42;;;;;;;8.63;3.33;;;;;;;;;;5083644;28;20050;-75
2021/06/13 09:20:20;;;;;;;8.30;3.20;;;;;;;;;;5082592;28;20033;-74
2021/06/13 09:23:06;;;;;;;8.18;2.83;;;;;;;;;;5086809;28;20032;-74
2021/06/13 09:25:32;;;;;;;5.20;2.65;;;;;;;;;;5088268;28;20484;-75
2021/06/13 09:28:12;;;;;;;4.05;2.70;;;;;;;;;;5072439;28;20028;-74
2021/06/13 09:30:39;;;;;;;5.38;2.90;;;;;;;;;;5072237;28;20379;-74
2021/06/13 09:33:05;;;;;;;4.85;2.50;;;;;;;;;;5072503;28;20601;-74
2021/06/13 09:35:32;;;;;;;5.65;3.75;;;;;;;;;;5083607;28;20025;-74
2021/06/13 09:38:04;;;;;;;5.03;3.28;;;;;;;;;;5091961;28;20035;-74
2021/06/13 09:40:30;;;;;;;3.58;2.80;;;;;;;;;;5092508;28;20471;-73
2021/06/13 09:42:56;;;;;;;7.18;2.78;;;;;;;;;;5092609;28;20534;-74
2021/06/13 09:45:26;;;;;;;5.03;2.83;;;;;;;;;;5093224;28;20043;-74
2021/06/13 09:48:10;;;;;;;4.90;2.70;;;;;;;;;;5093020;28;20028;-74
2021/06/13 09:50:40;;;;;;;6.15;3.03;;;;;;;;;;5091384;28;20024;-74
2021/06/13 09:53:23;;;;;;;5.30;2.90;;;;;;;;;;5092097;28;20020;-73
2021/06/13 09:56:12;;;;;;;4.55;3.17;;;;;;;;;;5078032;28;20027;-74
2021/06/13 09:58:48;;;;;;;3.45;2.50;;;;;;;;;;5071128;28;20036;-74
2021/06/13 10:01:14;;;;;;;6.95;3.50;;;;;;;;;;5071725;28;20141;-74
2021/06/13 10:03:40;;;;;;;6.95;3.00;;;;;;;;;;5071322;28;20075;-73
2021/06/13 10:06:08;;;;;;;4.93;2.70;;;;;;;;;;5073532;28;20043;-73
2021/06/13 10:08:35;;;;;;;6.10;2.65;;;;;;;;;;5075817;28;20024;-73
2021/06/13 10:11:02;;;;;;;4.25;2.67;;;;;;;;;;5075224;28;20056;-73
2021/06/13 10:13:48;;;;;;;4.97;2.30;;;;;;;;;;5075171;28;20029;-74
2021/06/13 10:16:22;;;;;;;5.07;2.60;;;;;;;;;;5074884;28;20495;-74
2021/06/13 10:18:58;;;;;;;6.78;2.90;;;;;;;;;;5075301;28;20075;-74
2021/06/13 10:21:30;;;;;;;5.78;2.65;;;;;;;;;;5074910;28;20476;-73
2021/06/13 10:23:56;;;;;;;5.80;3.10;;;;;;;;;;5075160;28;20032;-74
2021/06/13 10:26:23;;;;;;;4.38;2.60;;;;;;;;;;5094579;28;20027;-73
2021/06/13 10:28:49;;;;;;;3.65;2.55;;;;;;;;;;5095241;28;20552;-73
2021/06/13 10:31:15;;;;;;;6.90;3.00;;;;;;;;;;5094937;28;20072;-73
2021/06/13 10:33:41;;;;;;;5.95;2.63;;;;;;;;;;5095034;28;20035;-73
2021/06/13 10:36:08;;;;;;;3.58;2.10;;;;;;;;;;5094792;28;20467;-74
2021/06/13 10:38:36;;;;;;;7.47;3.15;;;;;;;;;;5094923;28;20111;-74
2021/06/13 10:41:03;;;;;;;4.38;2.70;;;;;;;;;;5093690;28;20020;-74
2021/06/13 10:43:30;;;;;;;3.22;2.65;;;;;;;;;;5074594;28;20479;-75
2021/06/13 10:46:09;;;;;;;4.90;2.35;;;;;;;;;;5074499;28;20070;-74
2021/06/13 10:48:40;;;;;;;3.63;2.30;;;;;;;;;;5074628;28;20157;-75
2021/06/13 10:51:25;;;;;;;4.25;2.38;;;;;;;;;;5074314;28;20024;-73
2021/06/13 10:53:51;;;;;;;5.65;2.45;;;;;;;;;;5074444;28;20123;-74
2021/06/13 10:56:25;;;;;;;5.57;2.70;;;;;;;;;;5076095;28;20060;-74
2021/06/13 10:58:56;;;;;;;5.63;2.40;;;;;;;;;;5087036;28;20047;-73
2021/06/13 11:01:24;;;;;;;4.05;2.55;;;;;;;;;;5074272;28;20023;-74
2021/06/13 11:04:20;;;;;;;2.85;2.42;;;;;;;;;;5093252;28;20040;-72
2021/06/13 11:06:48;;;;;;;;;;;;;;;;;;5094227;28;20032;-74
2021/06/13 11:09:15;;;;;;;5.88;2.38;;;;;;;;;;5094262;28;19926;-74
2021/06/13 11:11:43;;;;;;;3.60;2.22;;;;;;;;;;5093193;28;20031;-74
2021/06/13 11:14:22;;;;;;;4.80;2.53;;;;;;;;;;5094265;28;20024;-73
2021/06/13 11:16:48;;;;;;;5.85;2.70;;;;;;;;;;5093221;28;20027;-74
2021/06/13 11:19:26;;;;;;;3.30;2.78;;;;;;;;;;5094156;28;20023;-74
2021/06/13 11:22:11;;;;;;;2.65;2.35;;;;;;;;;;5094196;28;20130;-74
2021/06/13 11:24:50;;;;;;;4.68;2.63;;;;;;;;;;5094107;28;20032;-74
2021/06/13 11:27:16;;;;;;;5.43;2.63;;;;;;;;;;5094033;28;20027;-74
2021/06/13 11:29:53;;;;;;;5.43;2.72;;;;;;;;;;5093943;28;20043;-73
2021/06/13 11:32:38;;;;;;;5.35;2.85;;;;;;;;;;5093097;28;20024;-73
2021/06/13 11:35:24;;;;;;;2.55;2.20;;;;;;;;;;5093680;28;20055;-73
2021/06/13 11:38:11;;;;;;;2.92;2.15;;;;;;;;;;5093500;28;20032;-73
2021/06/13 11:40:38;;;;;;;3.53;2.17;;;;;;;;;;5092330;28;20020;-74
2021/06/13 11:43:14;;;;;;;7.35;2.45;;;;;;;;;;5093524;28;20047;-73
2021/06/13 11:45:59;;;;;;;2.67;2.10;;;;;;;;;;5093649;28;20069;-73
2021/06/13 11:48:27;;;;;;;5.50;2.55;;;;;;;;;;5093394;28;20026;-74
2021/06/13 11:51:00;;;;;;;3.05;2.33;;;;;;;;;;5077333;28;20028;-73
2021/06/13 11:53:59;;;;;;;4.53;2.50;;;;;;;;;;5071831;28;20025;-73
2021/06/13 11:56:34;;;;;;;4.10;2.28;;;;;;;;;;5090436;28;20028;-74
2021/06/13 11:59:03;;;;;;;2.97;2.30;;;;;;;;;;5093385;28;20364;-74
2021/06/13 12:01:31;;;;;;;5.30;2.35;;;;;;;;;;5093202;28;20507;-73
2021/06/13 12:03:58;;;;;;;4.05;2.33;;;;;;;;;;5072813;28;20029;-74
2021/06/13 12:06:24;;;;;;;4.95;2.42;;;;;;;;;;5073637;28;20052;-74
2021/06/13 12:08:51;;;;;;;4.35;2.85;;;;;;;;;;5072882;28;20021;-73
2021/06/13 12:11:30;;;;;;;5.72;2.90;;;;;;;;;;5072816;28;20020;-74
2021/06/13 12:13:56;;;;;;;4.45;2.72;;;;;;;;;;5071570;28;20395;-74
2021/06/13 12:16:22;;;;;;;6.20;3.22;;;;;;;;;;5072802;28;20449;-73
2021/06/13 12:19:02;;;;;;;5.18;2.55;;;;;;;;;;5072597;28;20096;-73
2021/06/13 12:21:29;;;;;;;3.97;2.60;;;;;;;;;;5072613;28;20112;-74
2021/06/13 12:24:07;;;;;;;3.67;2.40;;;;;;;;;;5073182;28;20028;-74
2021/06/13 12:29:22;;;;;;;3.15;2.45;;;;;;;;;;5072253;28;20435;-73
2021/06/13 12:31:48;;;;;;;2.85;2.20;;;;;;;;;;5072310;28;20042;-74
2021/06/13 12:34:24;;;;;;;4.47;2.38;;;;;;;;;;5073288;28;20033;-73
2021/06/13 12:36:54;;;;;;;4.32;2.17;;;;;;;;;;5092655;28;20516;-73
2021/06/13 12:39:24;;;;;;;5.05;2.30;;;;;;;;;;5092856;28;20087;-73
2021/06/13 12:41:50;;;;;;;2.97;2.30;;;;;;;;;;5075503;28;20020;-73
2021/06/13 12:44:16;;;;;;;4.95;2.55;;;;;;;;;;5070947;28;20029;-73
2021/06/13 12:46:42;;;;;;;3.80;2.58;;;;;;;;;;5072089;28;20020;-73
2021/06/13 12:49:08;;;;;;;4.00;2.30;;;;;;;;;;5072376;28;20101;-73
2021/06/13 12:51:36;;;;;;;5.45;2.40;;;;;;;;;;5072343;28;20028;-74
2021/06/13 12:54:13;;;;;;;3.35;2.28;;;;;;;;;;5070933;28;20077;-74
2021/06/13 12:56:40;;;;;;;5.88;2.92;;;;;;;;;;5077137;28;20036;-73
2021/06/13 12:59:07;;;;;;;4.93;2.30;;;;;;;;;;5074033;28;20032;-74
2021/06/13 13:01:33;;;;;;;4.50;2.70;;;;;;;;;;5071901;28;20027;-73
2021/06/13 13:04:01;;;;;;;3.85;2.38;;;;;;;;;;5092250;28;20064;-73
2021/06/13 13:06:27;;;;;;;4.70;2.60;;;;;;;;;;5092263;28;20390;-73
2021/06/13 13:08:53;;;;;;;4.13;2.35;;;;;;;;;;5092271;28;20443;-74
2021/06/13 13:11:21;;;;;;;2.92;2.33;;;;;;;;;;5092186;28;20111;-75
2021/06/13 13:13:51;;;;;;;5.18;2.60;;;;;;;;;;5091914;28;20446;-73
2021/06/13 13:16:20;;;;;;;4.38;2.40;;;;;;;;;;5072655;28;20028;-74
2021/06/13 13:18:46;;;;;;;4.50;2.75;;;;;;;;;;5072022;28;20539;-73
2021/06/13 13:21:12;;;;;;;6.60;2.50;;;;;;;;;;5071839;28;20039;-74
2021/06/13 13:23:45;;;;;;;5.30;2.50;;;;;;;;;;5071934;28;20032;-73
2021/06/13 13:26:14;;;;;;;8.65;2.65;;;;;;;;;;5095884;28;20016;-74
2021/06/13 13:28:43;;;;;;;4.53;2.60;;;;;;;;;;5104020;28;20019;-73
2021/06/13 13:31:12;;;;;;;3.80;2.47;;;;;;;;;;5105358;28;20030;-74
2021/06/13 13:33:40;;;;;;;5.47;3.42;;;;;;;;;;5088421;28;20076;-73
2021/06/13 13:36:08;;;;;;;4.65;2.67;;;;;;;;;;5100386;28;20032;-74
2021/06/13 13:38:44;;;;;;;4.63;3.67;;;;;;;;;;5105451;28;20035;-73
2021/06/13 13:41:13;;;;;;;3.05;2.50;;;;;;;;;;5103140;28;20016;-73
2021/06/13 13:43:40;;;;;;;5.30;3.17;;;;;;;;;;5103779;28;20110;-73
2021/06/13 13:46:06;;;;;;;3.08;2.78;;;;;;;;;;5115665;28;20027;-73
2021/06/13 13:48:33;;;;;;;4.82;2.92;;;;;;;;;;5103650;28;20024;-73
2021/06/13 13:51:01;;;;;;;7.65;3.40;;;;;;;;;;5096303;28;20024;-74
2021/06/13 13:53:29;;;;;;;4.95;2.75;;;;;;;;;;5101504;28;20101;-73
2021/06/13 13:55:55;;;;;;;2.92;2.40;;;;;;;;;;5111715;28;20095;-73
2021/06/13 13:58:22;;;;;;;6.18;3.05;;;;;;;;;;5097664;28;20032;-74
2021/06/13 14:00:50;;;;;;;4.53;2.40;;;;;;;;;;5095697;28;20024;-73
2021/06/13 14:03:16;;;;;;;3.85;2.75;;;;;;;;;;5088933;28;20032;-73
2021/06/13 14:05:42;;;;;;;6.93;3.88;;;;;;;;;;5090855;28;20024;-73
2021/06/13 14:08:09;;;;;;;8.43;2.95;;;;;;;;;;5108793;28;20024;-74
2021/06/13 14:10:35;;;;;;;4.68;2.60;;;;;;;;;;5114540;28;20031;-74
2021/06/13 14:13:01;;;;;;;5.30;2.67;;;;;;;;;;5113799;28;20383;-74
2021/06/13 14:15:27;;;;;;;4.63;2.42;;;;;;;;;;5100685;28;20035;-74
2021/06/13 14:17:53;;;;;;;4.68;2.80;;;;;;;;;;5092290;28;20020;-73
2021/06/13 14:20:19;;;;;;;3.92;2.50;;;;;;;;;;5095446;28;20040;-74
2021/06/13 14:22:45;;;;;;;4.18;2.97;;;;;;;;;;5088426;28;20142;-73
2021/06/13 14:25:12;;;;;;;3.78;2.30;;;;;;;;;;5076696;28;20055;-73
2021/06/13 14:27:38;;;;;;;4.55;2.40;;;;;;;;;;5115521;28;20026;-74
2021/06/13 14:30:04;;;;;;;4.95;3.88;;;;;;;;;;5115254;28;20016;-73
2021/06/13 14:32:30;;;;;;;6.78;3.10;;;;;;;;;;5095236;28;20028;-73
2021/06/13 14:34:56;;;;;;;5.50;3.00;;;;;;;;;;5099400;28;20051;-73
2021/06/13 14:37:22;;;;;;;4.60;3.33;;;;;;;;;;5111401;28;20040;-73
2021/06/13 14:39:54;;;;;;;6.47;2.67;;;;;;;;;;5100286;28;20074;-73
2021/06/13 14:42:20;;;;;;;4.72;2.80;;;;;;;;;;5082075;28;20024;-73
2021/06/13 14:44:46;;;;;;;3.97;2.92;;;;;;;;;;5094778;28;20027;-74
2021/06/13 14:47:12;;;;;;;4.20;2.78;;;;;;;;;;5099487;28;20699;-73
2021/06/13 14:49:38;;;;;;;3.15;2.20;;;;;;;;;;5094717;28;20094;-73
2021/06/13 14:52:04;;;;;;;4.78;2.67;;;;;;;;;;5093124;28;20099;-73